createdAt,value
2022-11-14T00:00:59.324Z,12.20
2022-11-14T00:03:27.676Z,12.20
2022-11-14T00:05:54.821Z,12.30
2022-11-14T00:08:23.706Z,12.40
2022-11-14T00:10:50.911Z,12.40
2022-11-14T00:13:18.139Z,12.50
2022-11-14T00:15:45.176Z,12.50
2022-11-14T00:18:12.385Z,12.50
2022-11-14T00:20:39.425Z,12.50
2022-11-14T00:23:06.363Z,12.50
2022-11-14T00:25:33.242Z,12.40
2022-11-14T00:28:00.229Z,12.40
2022-11-14T00:30:27.650Z,12.40
2022-11-14T00:32:56.890Z,12.40
2022-11-14T00:35:23.906Z,12.40
2022-11-14T00:37:50.793Z,12.30
2022-11-14T00:40:17.732Z,12.20
2022-11-14T00:42:45.129Z,12.20
2022-11-14T00:45:12.176Z,12.20
2022-11-14T00:47:39.081Z,12.20
2022-11-14T00:50:06.434Z,12.20
2022-11-14T00:52:33.308Z,12.10
2022-11-14T00:55:00.349Z,12.20
2022-11-14T00:57:28.666Z,12.20
2022-11-14T00:59:55.966Z,12.20
2022-11-14T01:02:23.137Z,12.30
2022-11-14T01:04:50.138Z,12.30
2022-11-14T01:07:17.326Z,12.30
2022-11-14T01:09:44.269Z,12.30
2022-11-14T01:12:11.268Z,12.30
2022-11-14T01:14:39.821Z,12.20
2022-11-14T01:17:06.933Z,12.10
2022-11-14T01:19:33.798Z,12.00
2022-11-14T01:22:05.955Z,11.90
2022-11-14T01:24:34.043Z,11.90
2022-11-14T01:27:01.080Z,12.00
2022-11-14T01:29:28.009Z,12.00
2022-11-14T01:31:54.973Z,12.00
2022-11-14T01:34:21.854Z,11.90
2022-11-14T01:36:48.753Z,11.70
2022-11-14T01:39:16.057Z,11.70
2022-11-14T01:41:42.960Z,11.60
2022-11-14T01:44:14.288Z,11.60
2022-11-14T01:46:41.313Z,11.60
2022-11-14T01:49:27.073Z,11.60
2022-11-14T01:52:02.932Z,11.60
2022-11-14T01:54:30.578Z,11.40
2022-11-14T01:56:59.296Z,11.40
2022-11-14T01:59:28.107Z,11.40
2022-11-14T02:01:55.239Z,11.50
2022-11-14T02:04:29.265Z,11.50
2022-11-14T02:06:57.885Z,11.50
2022-11-14T02:09:25.140Z,11.50
2022-11-14T02:11:52.194Z,11.50
2022-11-14T02:14:19.251Z,11.50
2022-11-14T02:17:01.108Z,11.50
2022-11-14T02:19:42.077Z,11.40
2022-11-14T02:22:08.955Z,11.20
2022-11-14T02:24:35.797Z,11.00
2022-11-14T02:27:02.986Z,11.00
2022-11-14T02:29:30.540Z,10.90
2022-11-14T02:31:57.433Z,10.80
2022-11-14T02:34:24.227Z,10.80
2022-11-14T02:36:52.312Z,10.90
2022-11-14T02:39:19.258Z,10.90
2022-11-14T02:41:46.088Z,11.00
2022-11-14T02:44:12.969Z,11.00
2022-11-14T02:46:39.801Z,11.00
2022-11-14T02:49:06.631Z,11.00
2022-11-14T02:51:33.503Z,11.10
2022-11-14T02:54:04.028Z,11.10
2022-11-14T02:56:31.677Z,11.00
2022-11-14T02:58:58.885Z,10.90
2022-11-14T03:01:26.040Z,10.60
2022-11-14T03:03:53.346Z,10.40
2022-11-14T03:06:20.521Z,10.40
2022-11-14T03:08:47.763Z,10.50
2022-11-14T03:11:14.845Z,10.50
2022-11-14T03:13:45.733Z,10.60
2022-11-14T03:16:13.222Z,10.70
2022-11-14T03:18:40.130Z,10.70
2022-11-14T03:21:08.084Z,10.80
2022-11-14T03:23:35.163Z,10.80
2022-11-14T03:26:02.595Z,10.90
2022-11-14T03:28:29.797Z,10.90
2022-11-14T03:30:56.917Z,10.90
2022-11-14T03:33:25.975Z,10.90
2022-11-14T03:35:52.960Z,10.80
2022-11-14T03:38:19.998Z,10.80
2022-11-14T03:40:46.883Z,10.70
2022-11-14T03:43:14.033Z,10.70
2022-11-14T03:45:41.113Z,10.70
2022-11-14T03:48:08.129Z,10.70
2022-11-14T03:50:35.037Z,10.70
2022-11-14T03:53:01.881Z,10.70
2022-11-14T03:55:28.805Z,10.70
2022-11-14T03:57:55.761Z,10.80
2022-11-14T04:00:22.672Z,10.80
2022-11-14T04:02:49.674Z,10.90
2022-11-14T04:05:16.560Z,10.90
2022-11-14T04:07:43.624Z,10.90
2022-11-14T04:10:11.070Z,10.90
2022-11-14T04:12:37.986Z,10.90
2022-11-14T04:15:05.073Z,10.90
2022-11-14T04:17:37.065Z,10.90
2022-11-14T04:20:07.339Z,10.90
2022-11-14T04:22:35.055Z,10.90
2022-11-14T04:25:01.966Z,11.00
2022-11-14T04:27:30.325Z,11.00
2022-11-14T04:29:57.525Z,10.90
2022-11-14T04:32:24.464Z,10.90
2022-11-14T04:34:51.469Z,10.90
2022-11-14T04:37:18.399Z,10.90
2022-11-14T04:39:45.212Z,10.90
2022-11-14T04:42:12.145Z,10.90
2022-11-14T04:44:39.041Z,10.90
2022-11-14T04:47:06.034Z,11.00
2022-11-14T04:49:32.866Z,11.00
2022-11-14T04:51:59.788Z,11.00
2022-11-14T04:54:27.679Z,11.00
2022-11-14T04:56:54.649Z,11.00
2022-11-14T04:59:23.737Z,10.90
2022-11-14T05:01:51.061Z,10.80
2022-11-14T05:04:18.127Z,10.70
2022-11-14T05:06:45.157Z,10.60
2022-11-14T05:09:12.252Z,10.40
2022-11-14T05:11:39.223Z,10.40
2022-11-14T05:14:06.103Z,10.40
2022-11-14T05:16:33.043Z,10.30
2022-11-14T05:18:59.997Z,10.20
2022-11-14T05:21:26.888Z,10.20
2022-11-14T05:23:53.929Z,10.20
2022-11-14T05:26:20.849Z,10.30
2022-11-14T05:28:47.791Z,10.30
2022-11-14T05:31:15.454Z,10.30
2022-11-14T05:33:42.409Z,10.40
2022-11-14T05:36:10.061Z,10.40
2022-11-14T05:38:37.504Z,10.40
2022-11-14T05:41:12.515Z,10.50
2022-11-14T05:43:40.413Z,10.40
2022-11-14T05:46:07.867Z,10.30
2022-11-14T05:48:34.938Z,10.30
2022-11-14T05:51:02.587Z,10.40
2022-11-14T05:53:29.935Z,10.40
2022-11-14T05:56:00.322Z,10.50
2022-11-14T05:58:27.789Z,10.50
2022-11-14T06:01:01.741Z,10.60
2022-11-14T06:03:30.952Z,10.60
2022-11-14T06:06:00.533Z,10.70
2022-11-14T06:08:28.500Z,10.70
2022-11-14T06:10:55.724Z,10.60
2022-11-14T06:13:24.448Z,10.70
2022-11-14T06:15:51.378Z,10.60
2022-11-14T06:18:29.626Z,10.60
2022-11-14T06:21:03.694Z,10.60
2022-11-14T06:23:30.725Z,10.70
2022-11-14T06:26:01.708Z,10.70
2022-11-14T06:28:28.865Z,10.50
2022-11-14T06:31:02.958Z,10.30
2022-11-14T06:33:30.414Z,10.30
2022-11-14T06:35:58.210Z,10.20
2022-11-14T06:38:25.509Z,10.20
2022-11-14T06:40:52.514Z,10.20
2022-11-14T06:43:19.412Z,10.20
2022-11-14T06:45:46.385Z,10.30
2022-11-14T06:48:13.332Z,10.40
2022-11-14T06:50:40.293Z,10.50
2022-11-14T06:53:08.287Z,10.60
2022-11-14T06:55:35.204Z,10.60
2022-11-14T06:58:02.076Z,10.70
2022-11-14T07:00:29.271Z,10.50
2022-11-14T07:02:56.271Z,10.50
2022-11-14T07:05:23.323Z,10.50
2022-11-14T07:07:50.248Z,10.60
2022-11-14T07:10:17.422Z,10.70
2022-11-14T07:12:45.274Z,10.70
2022-11-14T07:15:13.577Z,10.80
2022-11-14T07:17:41.275Z,10.90
2022-11-14T07:20:09.240Z,11.00
2022-11-14T07:22:36.166Z,11.00
2022-11-14T07:25:04.497Z,11.10
2022-11-14T07:27:31.420Z,11.10
2022-11-14T07:29:59.566Z,11.10
2022-11-14T07:32:26.510Z,11.10
2022-11-14T07:34:57.870Z,11.10
2022-11-14T07:37:29.018Z,11.10
2022-11-14T07:39:55.874Z,11.10
2022-11-14T07:42:22.935Z,11.00
2022-11-14T07:44:49.900Z,11.00
2022-11-14T07:47:16.869Z,11.00
2022-11-14T07:49:44.559Z,11.10
2022-11-14T07:52:12.269Z,11.10
2022-11-14T07:54:41.797Z,11.20
2022-11-14T07:57:09.399Z,11.20
2022-11-14T07:59:36.496Z,11.20
2022-11-14T08:02:03.562Z,11.20
2022-11-14T08:04:30.519Z,11.30
2022-11-14T08:06:58.698Z,11.40
2022-11-14T08:09:26.590Z,11.50
2022-11-14T08:11:55.161Z,11.60
2022-11-14T08:14:22.466Z,11.70
2022-11-14T08:16:50.370Z,11.70
2022-11-14T08:19:18.759Z,11.70
2022-11-14T08:21:46.558Z,11.70
2022-11-14T08:24:13.604Z,11.60
2022-11-14T08:26:40.892Z,11.50
2022-11-14T08:29:07.978Z,11.60
2022-11-14T08:34:39.837Z,11.50
2022-11-14T08:37:07.687Z,11.50
2022-11-14T08:39:34.638Z,11.80
2022-11-14T08:42:04.886Z,12.20
2022-11-14T08:44:32.327Z,12.40
2022-11-14T08:47:00.700Z,12.30
2022-11-14T08:49:28.048Z,12.40
2022-11-14T08:51:55.655Z,12.50
2022-11-14T08:54:26.233Z,12.70
2022-11-14T08:56:53.171Z,12.60
2022-11-14T08:59:26.746Z,12.50
2022-11-14T09:01:54.066Z,12.30
2022-11-14T09:04:21.132Z,12.30
2022-11-14T09:06:48.300Z,12.40
2022-11-14T09:09:15.488Z,12.50
2022-11-14T09:11:42.784Z,12.70
2022-11-14T09:14:09.792Z,12.90
2022-11-14T09:17:06.250Z,13.20
2022-11-14T09:19:33.694Z,13.50
2022-11-14T09:22:02.075Z,14.30
2022-11-14T09:24:28.943Z,14.50
2022-11-14T09:26:57.154Z,14.30
2022-11-14T09:29:24.286Z,14.40
2022-11-14T09:32:00.676Z,14.30
2022-11-14T09:34:27.605Z,14.20
2022-11-14T09:36:54.440Z,14.00
2022-11-14T09:39:21.470Z,14.00
2022-11-14T09:42:16.825Z,13.90
2022-11-14T09:44:53.547Z,13.80
2022-11-14T09:47:22.100Z,13.90
2022-11-14T09:49:54.011Z,14.10
2022-11-14T09:52:39.623Z,14.60
2022-11-14T09:55:15.066Z,15.30
2022-11-14T09:57:42.865Z,15.40
2022-11-14T10:00:20.062Z,15.20
2022-11-14T10:03:11.768Z,15.20
2022-11-14T10:05:47.216Z,16.00
2022-11-14T10:08:33.586Z,16.60
2022-11-14T10:11:08.271Z,16.90
2022-11-14T10:14:07.254Z,17.10
2022-11-14T10:16:44.235Z,17.20
2022-11-14T10:19:26.573Z,17.50
2022-11-14T10:22:01.523Z,17.70
2022-11-14T10:24:31.231Z,17.80
2022-11-14T10:27:02.349Z,18.00
2022-11-14T10:29:35.447Z,18.40
2022-11-14T10:32:26.954Z,19.20
2022-11-14T10:34:54.107Z,21.10
2022-11-14T10:37:52.953Z,22.10
2022-11-14T10:40:22.982Z,23.40
2022-11-14T10:42:51.123Z,25.00
2022-11-14T10:45:31.944Z,26.30
2022-11-14T10:54:02.496Z,27.90
2022-11-14T10:56:31.219Z,28.10
2022-11-14T10:58:58.186Z,28.00
2022-11-14T11:01:37.271Z,27.30
2022-11-14T11:04:14.353Z,26.60
2022-11-14T11:06:41.619Z,26.90
2022-11-14T11:09:27.997Z,28.00
2022-11-14T11:11:57.580Z,28.50
2022-11-14T11:14:24.535Z,28.90
2022-11-14T11:17:07.478Z,28.40
2022-11-14T11:19:34.490Z,28.80
2022-11-14T11:22:01.424Z,29.10
2022-11-14T11:24:35.200Z,28.30
2022-11-14T11:27:19.226Z,27.00
2022-11-14T11:30:04.500Z,26.80
2022-11-14T11:32:31.950Z,27.00
2022-11-14T11:34:59.471Z,27.00
2022-11-14T11:37:30.792Z,26.60
2022-11-14T11:39:59.236Z,25.50
2022-11-14T11:42:42.877Z,25.40
2022-11-14T11:45:20.675Z,26.20
2022-11-14T11:47:53.420Z,25.60
2022-11-14T11:50:21.301Z,24.20
2022-11-14T11:53:03.392Z,22.90
2022-11-14T11:55:33.690Z,21.70
2022-11-14T11:58:10.172Z,20.90
2022-11-14T12:00:37.051Z,20.40
2022-11-14T12:03:04.221Z,20.10
2022-11-14T12:05:41.904Z,19.80
2022-11-14T12:08:32.093Z,19.40
2022-11-14T12:10:59.029Z,19.40
2022-11-14T12:13:28.959Z,19.60
2022-11-14T12:16:02.144Z,19.90
2022-11-14T12:18:29.153Z,21.10
2022-11-14T12:21:16.543Z,23.10
2022-11-14T12:23:43.517Z,24.60
2022-11-14T12:26:10.367Z,25.60
2022-11-14T12:28:37.279Z,26.20
2022-11-14T12:31:05.528Z,26.40
2022-11-14T12:33:33.600Z,26.80
2022-11-14T12:36:01.404Z,27.20
2022-11-14T12:38:33.970Z,27.40
2022-11-14T12:41:00.934Z,27.00
2022-11-14T12:43:43.404Z,27.20
2022-11-14T12:46:11.750Z,27.40
2022-11-14T12:48:41.932Z,27.40
2022-11-14T12:51:29.893Z,27.30
2022-11-14T12:53:57.214Z,26.60
2022-11-14T12:56:30.509Z,25.30
2022-11-14T12:59:16.105Z,24.30
2022-11-14T13:01:47.310Z,23.50
2022-11-14T13:04:33.088Z,22.60
2022-11-14T13:07:12.386Z,21.80
2022-11-14T13:09:59.705Z,21.40
2022-11-14T13:12:45.338Z,21.00
2022-11-14T13:15:49.100Z,20.80
2022-11-14T13:18:44.879Z,20.50
2022-11-14T13:21:45.611Z,20.30
2022-11-14T13:24:19.238Z,20.20
2022-11-14T13:26:47.634Z,20.10
2022-11-14T13:29:33.350Z,20.00
2022-11-14T13:32:01.350Z,19.90
2022-11-14T13:34:50.131Z,19.90
2022-11-14T13:37:36.195Z,19.80
2022-11-14T13:40:08.314Z,19.50
2022-11-14T13:42:35.434Z,19.40
2022-11-14T13:45:17.638Z,19.50
2022-11-14T13:47:44.551Z,19.50
2022-11-14T13:50:14.529Z,19.50
2022-11-14T13:52:45.480Z,19.50
2022-11-14T13:55:22.610Z,19.40
2022-11-14T13:58:04.948Z,19.30
2022-11-14T14:00:43.313Z,19.30
2022-11-14T14:03:16.448Z,19.20
2022-11-14T14:05:55.636Z,19.20
2022-11-14T14:08:28.696Z,19.10
2022-11-14T14:11:20.981Z,18.90
2022-11-14T14:13:58.548Z,18.80
2022-11-14T14:16:37.697Z,18.50
2022-11-14T14:19:07.883Z,18.30
2022-11-14T14:21:34.857Z,18.20
2022-11-14T14:24:04.929Z,18.20
2022-11-14T14:26:38.838Z,18.30
2022-11-14T14:29:18.201Z,18.40
2022-11-14T14:31:45.214Z,18.50
2022-11-14T14:37:35.129Z,18.70
2022-11-14T14:40:02.834Z,18.70
2022-11-14T14:42:38.919Z,18.60
2022-11-14T14:45:08.100Z,18.50
2022-11-14T14:47:34.989Z,18.30
2022-11-14T14:50:06.157Z,17.80
2022-11-14T14:52:34.292Z,17.50
2022-11-14T14:55:06.366Z,17.10
2022-11-14T14:57:33.236Z,16.90
2022-11-14T15:00:05.271Z,16.70
2022-11-14T15:02:32.248Z,16.60
2022-11-14T15:04:59.602Z,16.40
2022-11-14T15:07:27.478Z,16.30
2022-11-14T15:09:58.220Z,16.50
2022-11-14T15:12:25.261Z,16.60
2022-11-14T15:14:53.139Z,16.70
2022-11-14T15:17:20.503Z,16.70
2022-11-14T15:19:47.951Z,16.70
2022-11-14T15:22:14.786Z,16.60
2022-11-14T15:24:44.842Z,16.70
2022-11-14T15:27:15.715Z,16.70
2022-11-14T15:29:53.052Z,16.70
2022-11-14T15:32:21.184Z,16.70
2022-11-14T15:35:06.901Z,16.90
2022-11-14T15:37:34.110Z,16.90
2022-11-14T15:40:17.324Z,17.00
2022-11-14T15:42:44.173Z,17.00
2022-11-14T15:45:27.690Z,17.00
2022-11-14T15:48:03.655Z,17.00
2022-11-14T15:50:34.395Z,16.90
2022-11-14T15:53:02.368Z,17.00
2022-11-14T15:55:29.430Z,17.00
2022-11-14T15:58:21.377Z,16.90
2022-11-14T16:00:47.704Z,16.90
2022-11-14T16:03:15.985Z,16.90
2022-11-14T16:05:43.326Z,16.80
2022-11-14T16:08:13.415Z,16.70
2022-11-14T16:10:40.255Z,16.70
2022-11-14T16:13:07.167Z,16.70
2022-11-14T16:15:34.082Z,16.60
2022-11-14T16:18:01.078Z,16.60
2022-11-14T16:20:28.767Z,16.60
2022-11-14T16:22:58.506Z,16.50
2022-11-14T16:25:29.907Z,16.50
2022-11-14T16:27:57.417Z,16.40
2022-11-14T16:30:27.797Z,16.50
2022-11-14T16:32:54.802Z,16.50
2022-11-14T16:35:42.708Z,16.40
2022-11-14T16:38:12.267Z,16.40
2022-11-14T16:40:39.125Z,16.40
2022-11-14T16:43:06.126Z,16.40
2022-11-14T16:45:33.384Z,16.40
2022-11-14T16:48:00.329Z,16.30
2022-11-14T16:50:27.384Z,16.30
2022-11-14T16:52:56.929Z,16.30
2022-11-14T16:55:23.995Z,16.30
2022-11-14T16:57:54.212Z,16.30
2022-11-14T17:00:22.306Z,16.20
2022-11-14T17:02:49.308Z,16.20
2022-11-14T17:05:16.919Z,16.20
2022-11-14T17:07:43.928Z,16.10
2022-11-14T17:10:10.898Z,16.00
2022-11-14T17:12:38.071Z,15.90
2022-11-14T17:15:05.632Z,15.90
2022-11-14T17:17:33.191Z,15.80
2022-11-14T17:20:00.706Z,15.80
2022-11-14T17:22:30.663Z,15.70
2022-11-14T17:24:57.999Z,15.70
2022-11-14T17:27:43.699Z,15.60
2022-11-14T17:30:16.530Z,15.60
2022-11-14T17:32:45.048Z,15.50
2022-11-14T17:35:12.336Z,15.50
2022-11-14T17:37:39.603Z,15.50
2022-11-14T17:40:15.177Z,15.40
2022-11-14T17:42:42.681Z,15.10
2022-11-14T17:45:10.005Z,14.90
2022-11-14T17:47:37.109Z,14.70
2022-11-14T17:50:04.884Z,14.40
2022-11-14T17:52:32.050Z,14.40
2022-11-14T17:54:58.942Z,14.30
2022-11-14T17:57:26.152Z,14.30
2022-11-14T17:59:53.419Z,14.30
2022-11-14T18:02:20.377Z,14.30
2022-11-14T18:04:50.131Z,14.30
2022-11-14T18:07:17.699Z,14.20
2022-11-14T18:09:44.881Z,14.10
2022-11-14T18:12:11.990Z,13.80
2022-11-14T18:14:41.081Z,13.70
2022-11-14T18:17:13.173Z,13.80
2022-11-14T18:19:40.562Z,13.80
2022-11-14T18:22:07.990Z,13.80
2022-11-14T18:24:36.553Z,13.70
2022-11-14T18:27:03.536Z,13.80
2022-11-14T18:29:31.326Z,13.80
2022-11-14T18:31:58.232Z,13.90
2022-11-14T18:34:25.143Z,13.90
2022-11-14T18:36:52.002Z,13.80
2022-11-14T18:39:19.099Z,13.80
2022-11-14T18:41:47.875Z,13.80
2022-11-14T18:44:14.814Z,13.80
2022-11-14T18:46:41.748Z,13.80
2022-11-14T18:49:09.160Z,13.70
2022-11-14T18:51:42.368Z,13.60
2022-11-14T18:54:13.291Z,13.70
2022-11-14T18:56:41.626Z,13.70
2022-11-14T18:59:08.575Z,13.80
2022-11-14T19:01:36.971Z,13.70
2022-11-14T19:04:07.777Z,13.80
2022-11-14T19:06:55.397Z,13.70
2022-11-14T19:09:25.355Z,13.70
2022-11-14T19:12:11.326Z,13.60
2022-11-14T19:14:38.318Z,13.50
2022-11-14T19:17:07.535Z,13.50
2022-11-14T19:19:34.704Z,13.50
2022-11-14T19:22:01.624Z,13.40
2022-11-14T19:24:37.087Z,13.40
2022-11-14T19:27:04.393Z,13.30
2022-11-14T19:29:31.457Z,13.30
2022-11-14T19:32:01.471Z,13.20
2022-11-14T19:34:29.041Z,13.20
2022-11-14T19:37:00.778Z,13.10
2022-11-14T19:39:28.387Z,13.00
2022-11-14T19:41:55.399Z,13.10
2022-11-14T19:44:22.361Z,13.10
2022-11-14T19:46:49.279Z,13.10
2022-11-14T19:49:17.342Z,13.20
2022-11-14T19:51:44.410Z,13.20
2022-11-14T19:54:11.400Z,13.20
2022-11-14T19:56:38.552Z,13.20
2022-11-14T19:59:11.077Z,13.30
2022-11-14T20:01:42.360Z,13.20
2022-11-14T20:04:10.117Z,13.20
2022-11-14T20:06:37.188Z,13.00
2022-11-14T20:09:10.152Z,12.90
2022-11-14T20:11:37.161Z,12.60
2022-11-14T20:14:05.734Z,12.40
2022-11-14T20:16:33.697Z,12.30
2022-11-14T20:19:00.892Z,12.40
2022-11-14T20:21:31.683Z,12.50
2022-11-14T20:23:58.586Z,12.50
2022-11-14T20:26:28.785Z,12.50
2022-11-14T20:28:55.905Z,12.30
2022-11-14T20:31:23.724Z,12.30
2022-11-14T20:33:51.817Z,12.30
2022-11-14T20:36:20.853Z,12.30
2022-11-14T20:38:47.876Z,12.40
2022-11-14T20:41:14.914Z,12.50
2022-11-14T20:43:41.942Z,12.50
2022-11-14T20:46:13.576Z,12.40
2022-11-14T20:48:40.838Z,12.10
2022-11-14T20:51:08.829Z,12.10
2022-11-14T20:53:38.687Z,12.10
2022-11-14T20:56:05.768Z,12.20
2022-11-14T20:58:32.864Z,12.10
2022-11-14T21:00:59.927Z,12.00
2022-11-14T21:03:26.848Z,12.10
2022-11-14T21:05:53.796Z,12.20
2022-11-14T21:08:21.807Z,12.30
2022-11-14T21:10:49.860Z,12.40
2022-11-14T21:13:36.018Z,12.50
2022-11-14T21:16:04.228Z,12.50
2022-11-14T21:18:31.406Z,12.60
2022-11-14T21:20:59.985Z,12.50
2022-11-14T21:23:26.904Z,12.50
2022-11-14T21:26:00.633Z,12.50
2022-11-14T21:28:28.727Z,12.50
2022-11-14T21:30:56.104Z,12.50
2022-11-14T21:33:23.074Z,12.60
2022-11-14T21:35:50.011Z,12.50
2022-11-14T21:38:16.903Z,12.60
2022-11-14T21:40:44.281Z,12.60
2022-11-14T21:43:11.335Z,12.60
2022-11-14T21:45:38.200Z,12.70
2022-11-14T21:48:05.192Z,12.60
2022-11-14T21:50:32.990Z,12.60
2022-11-14T21:53:00.084Z,12.60
2022-11-14T21:55:27.276Z,12.50
2022-11-14T21:57:54.710Z,12.50
2022-11-14T22:00:21.784Z,12.20
2022-11-14T22:03:07.470Z,12.00
2022-11-14T22:05:34.431Z,12.00
2022-11-14T22:08:01.575Z,12.10
2022-11-14T22:10:28.972Z,12.20
2022-11-14T22:12:55.873Z,12.30
2022-11-14T22:15:22.816Z,12.40
2022-11-14T22:17:49.788Z,12.50
2022-11-14T22:20:16.764Z,12.50
2022-11-14T22:22:43.817Z,12.60
2022-11-14T22:25:10.984Z,12.50
2022-11-14T22:27:37.921Z,12.40
2022-11-14T22:30:04.991Z,12.40
2022-11-14T22:32:32.230Z,12.30
2022-11-14T22:34:59.197Z,12.30
2022-11-14T22:37:28.995Z,12.30
2022-11-14T22:39:55.953Z,12.40
2022-11-14T22:42:22.827Z,12.40
2022-11-14T22:44:49.812Z,12.50
2022-11-14T22:47:16.686Z,12.60
2022-11-14T22:49:46.575Z,12.70
2022-11-14T22:52:13.576Z,12.80
2022-11-14T22:54:40.568Z,12.80
2022-11-14T22:57:07.411Z,12.90
2022-11-14T22:59:37.029Z,12.90
2022-11-14T23:02:03.908Z,12.70
2022-11-14T23:04:48.350Z,12.60
2022-11-14T23:07:15.352Z,12.50
2022-11-14T23:09:43.799Z,12.50
2022-11-14T23:12:10.707Z,12.50
2022-11-14T23:14:37.559Z,12.60
2022-11-14T23:17:04.484Z,12.60
2022-11-14T23:19:31.614Z,12.60
2022-11-14T23:21:58.885Z,12.70
2022-11-14T23:24:25.851Z,12.70
2022-11-14T23:26:53.634Z,12.70
2022-11-14T23:29:20.552Z,12.70
2022-11-14T23:31:47.522Z,12.70
2022-11-14T23:34:14.441Z,12.80
2022-11-14T23:36:41.374Z,12.80
2022-11-14T23:39:08.401Z,12.80
2022-11-14T23:41:35.290Z,12.80
2022-11-14T23:44:02.382Z,12.90
2022-11-14T23:46:29.288Z,12.80
2022-11-14T23:48:56.234Z,12.80
2022-11-14T23:51:23.124Z,12.80
2022-11-14T23:53:50.046Z,12.80
2022-11-14T23:56:17.085Z,12.80
2022-11-14T23:58:43.958Z,12.80
